createdAt,value
2023-02-14T00:00:28.986Z,6.05
2023-02-14T00:02:57.043Z,5.15
2023-02-14T00:05:23.794Z,5.85
2023-02-14T00:07:50.265Z,6.10
2023-02-14T00:10:17.296Z,5.30
2023-02-14T00:12:43.616Z,6.10
2023-02-14T00:15:22.237Z,5.22
2023-02-14T00:17:59.316Z,5.60
2023-02-14T00:20:26.841Z,5.55
2023-02-14T00:22:53.261Z,6.65
2023-02-14T00:25:19.707Z,5.13
2023-02-14T00:27:46.011Z,6.20
2023-02-14T00:30:14.059Z,6.13
2023-02-14T00:32:41.771Z,8.05
2023-02-14T00:35:09.817Z,7.80
2023-02-14T00:37:37.797Z,7.35
2023-02-14T00:40:06.389Z,7.25
2023-02-14T00:42:32.752Z,6.72
2023-02-14T00:44:59.102Z,7.93
2023-02-14T00:47:25.590Z,7.63
2023-02-14T00:49:52.018Z,7.43
2023-02-14T00:52:18.426Z,7.65
2023-02-14T00:54:44.750Z,7.90
2023-02-14T00:57:13.519Z,8.25
2023-02-14T00:59:39.834Z,7.65
2023-02-14T01:02:06.286Z,7.40
2023-02-14T01:04:33.996Z,7.45
2023-02-14T01:07:00.306Z,8.35
2023-02-14T01:09:26.660Z,7.38
2023-02-14T01:11:53.019Z,7.35
2023-02-14T01:14:19.429Z,7.43
2023-02-14T01:16:45.944Z,7.75
2023-02-14T01:19:12.342Z,7.55
2023-02-14T01:21:38.696Z,7.47
2023-02-14T01:24:07.775Z,7.40
2023-02-14T01:26:35.084Z,7.63
2023-02-14T01:29:02.098Z,8.50
2023-02-14T01:31:32.647Z,8.60
2023-02-14T01:33:59.861Z,7.68
2023-02-14T01:36:35.518Z,8.07
2023-02-14T01:39:06.273Z,8.55
2023-02-14T01:41:35.304Z,7.47
2023-02-14T01:44:07.601Z,8.10
2023-02-14T01:46:36.767Z,8.77
2023-02-14T01:49:18.427Z,9.07
2023-02-14T01:51:56.977Z,9.82
2023-02-14T01:54:46.291Z,8.65
2023-02-14T01:57:16.486Z,8.93
2023-02-14T01:59:50.047Z,9.15
2023-02-14T02:02:49.235Z,8.38
2023-02-14T02:05:16.412Z,9.82
2023-02-14T02:07:42.875Z,8.80
2023-02-14T02:10:09.623Z,8.75
2023-02-14T02:12:36.477Z,10.43
2023-02-14T02:15:04.676Z,8.40
2023-02-14T02:18:00.258Z,10.25
2023-02-14T02:20:50.875Z,9.07
2023-02-14T02:23:48.732Z,8.60
2023-02-14T02:26:40.094Z,9.30
2023-02-14T02:37:23.264Z,10.13
2023-02-14T02:40:32.608Z,9.73
2023-02-14T02:43:37.040Z,9.27
2023-02-14T02:46:30.348Z,9.77
2023-02-14T02:49:40.955Z,9.95
2023-02-14T02:52:40.716Z,9.43
2023-02-14T02:55:15.959Z,9.00
2023-02-14T02:57:44.468Z,10.00
2023-02-14T03:00:13.563Z,9.70
2023-02-14T03:03:46.390Z,10.35
2023-02-14T03:06:12.762Z,9.15
2023-02-14T03:08:39.126Z,10.45
2023-02-14T03:11:05.567Z,9.38
2023-02-14T03:13:40.901Z,11.77
2023-02-14T03:16:32.731Z,9.35
2023-02-14T03:19:10.252Z,10.00
2023-02-14T03:22:20.141Z,10.20
2023-02-14T03:24:56.150Z,11.10
2023-02-14T03:28:11.533Z,10.15
2023-02-14T03:35:12.523Z,9.80
2023-02-14T03:38:12.248Z,9.27
2023-02-14T03:40:49.298Z,9.73
2023-02-14T03:43:59.135Z,10.27
2023-02-14T03:46:35.035Z,9.90
2023-02-14T03:53:10.036Z,11.60
2023-02-14T03:55:44.128Z,11.27
2023-02-14T03:58:20.665Z,11.98
2023-02-14T04:00:50.463Z,10.25
2023-02-14T04:03:19.597Z,11.38
2023-02-14T04:05:52.057Z,10.55
2023-02-14T04:08:27.821Z,10.57
2023-02-14T04:15:16.478Z,11.70
2023-02-14T13:33:03.913Z,43.00
2023-02-14T13:35:34.162Z,27.20
2023-02-14T13:42:06.982Z,23.40
2023-02-14T13:44:46.269Z,40.25
2023-02-14T13:47:34.369Z,31.83
2023-02-14T13:50:02.194Z,24.23
2023-02-14T13:53:13.643Z,24.75
2023-02-14T13:55:44.396Z,24.15
2023-02-14T13:58:23.391Z,23.92
2023-02-14T14:00:53.605Z,22.92
2023-02-14T14:03:26.074Z,22.47
2023-02-14T14:05:58.737Z,23.95
2023-02-14T14:08:27.571Z,23.38
2023-02-14T14:10:57.655Z,21.67
2023-02-14T14:13:42.277Z,21.83
2023-02-14T14:16:24.363Z,21.48
2023-02-14T14:18:57.088Z,21.30
2023-02-14T14:21:30.594Z,21.27
2023-02-14T14:24:06.222Z,21.17
2023-02-14T14:26:45.773Z,23.88
2023-02-14T14:29:29.736Z,22.90
2023-02-14T14:31:56.638Z,23.67
2023-02-14T14:34:25.899Z,23.05
2023-02-14T14:37:07.136Z,22.42
2023-02-14T14:39:35.183Z,20.95
2023-02-14T14:42:15.406Z,23.00
2023-02-14T14:44:50.113Z,24.02
2023-02-14T14:47:21.124Z,24.17
2023-02-14T14:49:48.024Z,23.17
2023-02-14T14:52:28.897Z,25.42
2023-02-14T14:54:56.023Z,24.30
2023-02-14T16:00:26.623Z,71.18
2023-02-14T16:02:58.059Z,100.50
2023-02-14T16:05:26.156Z,100.07
2023-02-14T16:08:05.737Z,59.78
2023-02-14T16:10:37.579Z,48.28
2023-02-14T16:13:20.314Z,36.47
2023-02-14T16:15:59.425Z,36.05
2023-02-14T16:18:37.750Z,45.67
2023-02-14T16:21:14.735Z,32.10
2023-02-14T16:23:41.750Z,33.38
2023-02-14T16:26:08.721Z,30.63
2023-02-14T16:28:36.819Z,30.50
2023-02-14T16:31:10.022Z,32.50
2023-02-14T16:33:39.247Z,29.30
2023-02-14T16:36:19.419Z,30.42
2023-02-14T16:38:46.354Z,31.25
2023-02-14T16:41:16.525Z,31.00
2023-02-14T16:43:42.958Z,32.30
2023-02-14T16:46:12.519Z,44.40
2023-02-14T16:48:38.995Z,39.80
2023-02-14T16:51:05.780Z,40.78
2023-02-14T16:53:32.173Z,42.22
2023-02-14T16:55:58.676Z,40.25
2023-02-14T16:58:31.761Z,33.42
2023-02-14T17:00:58.594Z,33.08
2023-02-14T17:03:25.194Z,34.63
2023-02-14T17:05:52.002Z,33.38
2023-02-14T17:08:18.685Z,34.85
2023-02-14T17:10:47.827Z,30.48
2023-02-14T17:13:19.072Z,31.92
2023-02-14T17:18:14.797Z,34.33
2023-02-14T17:20:41.195Z,36.63
2023-02-14T17:23:07.636Z,36.33
2023-02-14T17:25:35.004Z,33.35
2023-02-14T17:28:01.359Z,38.92
2023-02-14T17:30:28.143Z,55.50
2023-02-14T17:32:54.444Z,55.78
2023-02-14T17:35:21.150Z,51.50
2023-02-14T17:37:47.463Z,45.80
2023-02-14T17:40:14.874Z,41.30
2023-02-14T17:42:42.080Z,39.45
2023-02-14T17:45:11.569Z,36.90
2023-02-14T17:47:39.591Z,35.92
2023-02-14T17:50:06.700Z,36.10
2023-02-14T17:52:33.061Z,34.65
2023-02-14T17:54:59.885Z,32.72
2023-02-14T17:57:26.244Z,34.85
2023-02-14T17:59:53.350Z,44.58
2023-02-14T18:02:19.695Z,51.35
2023-02-14T18:04:48.152Z,36.63
2023-02-14T18:07:14.615Z,31.60
2023-02-14T18:09:40.957Z,36.40
2023-02-14T18:12:07.576Z,37.05
2023-02-14T18:14:34.303Z,33.83
2023-02-14T18:17:00.711Z,38.70
2023-02-14T18:19:27.807Z,98.88
2023-02-14T18:21:54.283Z,61.97
2023-02-14T18:24:20.610Z,47.80
2023-02-14T18:26:47.238Z,38.40
2023-02-14T18:29:13.669Z,33.45
2023-02-14T18:31:42.665Z,34.47
2023-02-14T18:34:09.502Z,39.90
2023-02-14T18:36:37.381Z,44.08
2023-02-14T18:39:04.497Z,52.25
2023-02-14T18:41:31.249Z,47.35
2023-02-14T18:43:58.227Z,42.72
2023-02-14T18:46:27.280Z,38.17
2023-02-14T18:48:55.785Z,42.30
2023-02-14T18:51:24.833Z,40.20
2023-02-14T18:53:52.245Z,65.28
2023-02-14T18:56:21.182Z,46.22
2023-02-14T18:58:52.533Z,41.50
2023-02-14T19:01:22.135Z,40.38
2023-02-14T19:03:50.312Z,50.78
2023-02-14T19:06:17.902Z,48.05
2023-02-14T19:08:44.700Z,46.55
2023-02-14T19:11:17.619Z,45.15
2023-02-14T19:13:45.901Z,50.60
2023-02-14T19:16:14.571Z,44.97
2023-02-14T19:18:41.023Z,39.72
2023-02-14T19:21:20.525Z,41.33
2023-02-14T19:23:46.972Z,40.30
2023-02-14T19:26:29.547Z,36.25
2023-02-14T19:28:57.969Z,38.40
2023-02-14T19:31:25.300Z,36.60
2023-02-14T19:33:51.866Z,38.13
2023-02-14T19:36:20.437Z,41.35
2023-02-14T19:38:49.369Z,35.17
2023-02-14T19:41:24.399Z,35.42
2023-02-14T19:43:51.583Z,32.95
2023-02-14T19:46:19.990Z,39.33
2023-02-14T19:48:47.377Z,34.38
2023-02-14T19:51:20.271Z,34.72
2023-02-14T19:53:46.704Z,34.88
2023-02-14T19:56:17.693Z,46.17
2023-02-14T19:58:44.060Z,43.22
2023-02-14T20:01:21.849Z,45.15
2023-02-14T20:03:48.195Z,43.92
2023-02-14T20:06:15.349Z,55.60
2023-02-14T20:08:41.666Z,42.40
2023-02-14T20:11:29.722Z,56.97
2023-02-14T20:13:56.958Z,42.35
2023-02-14T20:16:25.942Z,42.88
2023-02-14T20:18:52.839Z,37.95
2023-02-14T20:21:24.386Z,41.50
2023-02-14T20:24:12.560Z,40.33
2023-02-14T20:26:40.333Z,37.70
2023-02-14T20:29:09.615Z,37.80
2023-02-14T20:31:39.631Z,40.55
2023-02-14T20:34:06.947Z,39.22
2023-02-14T20:36:33.276Z,41.08
2023-02-14T20:39:02.093Z,41.22
2023-02-14T20:41:29.734Z,39.25
2023-02-14T20:44:04.168Z,40.85
2023-02-14T20:46:30.971Z,40.97
2023-02-14T20:48:57.332Z,41.95
2023-02-14T20:51:23.864Z,39.05
2023-02-14T20:53:50.228Z,42.15
2023-02-14T20:56:16.926Z,40.50
2023-02-14T20:58:43.306Z,38.08
2023-02-14T21:01:20.119Z,37.25
2023-02-14T21:03:50.626Z,41.05
2023-02-14T21:06:19.162Z,39.53
2023-02-14T21:08:46.514Z,37.33
2023-02-14T21:11:15.320Z,37.90
2023-02-14T21:13:42.280Z,38.03
2023-02-14T21:16:17.334Z,36.35
2023-02-14T21:18:48.468Z,38.50
2023-02-14T21:21:24.613Z,39.88
2023-02-14T21:23:52.269Z,36.60
2023-02-14T21:26:20.030Z,38.25
2023-02-14T21:28:46.338Z,38.42
2023-02-14T21:31:15.070Z,36.90
2023-02-14T21:33:41.456Z,38.72
2023-02-14T21:36:09.196Z,34.22
2023-02-14T21:38:36.169Z,34.38
2023-02-14T21:41:05.136Z,31.40
2023-02-14T21:43:39.416Z,30.60
2023-02-14T21:46:07.837Z,32.35
2023-02-14T21:48:53.157Z,31.92
2023-02-14T21:51:20.156Z,32.58
2023-02-14T21:53:46.868Z,32.75
2023-02-14T21:56:17.955Z,35.50
2023-02-14T22:01:19.566Z,39.13
2023-02-14T22:03:46.598Z,34.05
2023-02-14T22:06:13.878Z,33.65
2023-02-14T22:08:40.649Z,35.92
2023-02-14T22:11:08.891Z,32.78
2023-02-14T22:13:35.916Z,36.55
2023-02-14T22:16:07.255Z,33.00
2023-02-14T22:18:33.796Z,31.42
2023-02-14T22:21:08.599Z,30.77
2023-02-14T22:23:35.417Z,33.22
2023-02-14T22:26:12.386Z,31.17
2023-02-14T22:28:39.842Z,30.65
2023-02-14T22:31:06.784Z,31.70
2023-02-14T22:33:33.498Z,29.92
2023-02-14T22:36:00.922Z,31.38
2023-02-14T22:38:27.614Z,31.13
2023-02-14T22:40:54.519Z,30.02
2023-02-14T22:43:21.939Z,30.98
2023-02-14T22:45:48.847Z,32.63
2023-02-14T22:48:15.415Z,29.98
2023-02-14T22:50:41.901Z,34.03
2023-02-14T22:53:08.215Z,30.60
2023-02-14T22:55:34.689Z,31.42
2023-02-14T22:58:01.198Z,32.78
2023-02-14T23:00:28.200Z,33.70
2023-02-14T23:02:54.576Z,32.00
2023-02-14T23:05:20.951Z,31.17
2023-02-14T23:07:47.333Z,31.27
2023-02-14T23:10:13.708Z,29.42
2023-02-14T23:12:58.823Z,34.25
2023-02-14T23:15:43.661Z,30.08
2023-02-14T23:18:31.366Z,30.88
2023-02-14T23:21:16.145Z,29.30
2023-02-14T23:23:42.471Z,29.15
2023-02-14T23:26:08.923Z,31.98
2023-02-14T23:28:35.336Z,29.73
2023-02-14T23:31:02.531Z,28.15
2023-02-14T23:33:28.854Z,28.70
2023-02-14T23:35:55.334Z,28.73
2023-02-14T23:38:21.736Z,30.33
2023-02-14T23:41:06.722Z,30.05
2023-02-14T23:43:33.019Z,28.95
2023-02-14T23:46:00.254Z,28.65
2023-02-14T23:48:26.740Z,30.55
2023-02-14T23:50:53.049Z,28.13
2023-02-14T23:53:19.417Z,27.98
2023-02-14T23:55:45.737Z,28.42
2023-02-14T23:58:12.020Z,28.00
